createdAt,value
2024-04-26T00:02:51.870Z,4.7
2024-04-26T00:07:49.308Z,4.9
2024-04-26T00:12:50.542Z,4.2
2024-04-26T00:17:48.823Z,4.6
2024-04-26T00:22:48.475Z,5
2024-04-26T00:27:48.106Z,5.2
2024-04-26T00:32:47.661Z,6
2024-04-26T00:37:47.089Z,6.4
2024-04-26T00:42:46.727Z,6.6
2024-04-26T00:47:46.495Z,6.6
2024-04-26T00:52:46.390Z,7
2024-04-26T00:57:45.509Z,7.6
2024-04-26T01:02:45.755Z,7.6
2024-04-26T01:07:46.111Z,8.9
2024-04-26T01:12:44.315Z,9
2024-04-26T01:17:44.161Z,9.8
2024-04-26T01:22:45.161Z,10.5
2024-04-26T01:27:43.244Z,10.8
2024-04-26T01:32:43.881Z,11.2
2024-04-26T01:37:42.564Z,11.7
2024-04-26T01:42:42.203Z,13.6
2024-04-26T01:47:41.915Z,13
2024-04-26T01:52:41.494Z,14.1
2024-04-26T01:57:41.961Z,13.9
2024-04-26T02:02:41.276Z,12.3
2024-04-26T02:07:41.254Z,12.6
2024-04-26T02:12:40.066Z,11.1
2024-04-26T02:17:39.901Z,10.8
2024-04-26T02:22:39.327Z,10.6
2024-04-26T02:27:38.879Z,11.1
2024-04-26T02:32:38.785Z,10.4
2024-04-26T02:37:38.114Z,11.4
2024-04-26T02:42:37.704Z,10.2
2024-04-26T02:47:37.394Z,11.1
2024-04-26T02:52:36.956Z,10.3
2024-04-26T02:57:36.496Z,10
2024-04-26T03:02:36.403Z,10.2
2024-04-26T03:07:35.630Z,11
2024-04-26T03:12:35.318Z,8.8
2024-04-26T03:17:35.087Z,8.9
2024-04-26T03:22:34.459Z,9
2024-04-26T03:27:34.751Z,9.2
2024-04-26T03:32:34.213Z,8.6
2024-04-26T03:37:33.318Z,9.2
2024-04-26T03:42:32.989Z,10.4
2024-04-26T03:47:32.623Z,10.4
2024-04-26T03:52:32.133Z,10.7
2024-04-26T03:57:31.721Z,11.5
2024-04-26T04:02:31.481Z,11.1
2024-04-26T04:07:30.958Z,11.8
2024-04-26T04:12:30.660Z,10.2
2024-04-26T04:17:30.488Z,11.2
2024-04-26T04:22:29.734Z,11.8
2024-04-26T04:27:29.366Z,10.6
2024-04-26T04:32:29.093Z,11.4
2024-04-26T04:37:28.643Z,12
2024-04-26T04:42:28.184Z,11.3
2024-04-26T04:47:28.019Z,11.8
2024-04-26T04:52:27.382Z,11.7
2024-04-26T04:57:26.941Z,10.8
2024-04-26T05:02:26.757Z,10.9
2024-04-26T05:07:28.741Z,11.8
2024-04-26T05:12:26.206Z,12.8
2024-04-26T05:17:25.649Z,13.1
2024-04-26T05:22:25.056Z,13.7
2024-04-26T05:27:24.784Z,13.8
2024-04-26T05:32:24.749Z,15.3
2024-04-26T05:37:23.943Z,14.3
2024-04-26T05:42:23.617Z,15.4
2024-04-26T05:47:23.407Z,16.1
2024-04-26T05:52:22.930Z,16.6
2024-04-26T05:57:22.624Z,17.6
2024-04-26T06:02:22.203Z,16.6
2024-04-26T06:07:21.877Z,18.4
2024-04-26T06:12:21.609Z,17.7
2024-04-26T06:17:21.261Z,17.1
2024-04-26T06:22:20.826Z,18.6
2024-04-26T06:27:20.557Z,19.5
2024-04-26T06:32:20.277Z,18.8
2024-04-26T06:37:19.822Z,18
2024-04-26T06:42:19.854Z,23.6
2024-04-26T06:47:19.864Z,14.4
2024-04-26T06:52:18.907Z,19.8
2024-04-26T06:57:18.799Z,15.7
2024-04-26T07:02:18.454Z,18.6
2024-04-26T07:07:18.087Z,19.9
2024-04-26T07:12:17.841Z,13.2
2024-04-26T07:17:17.400Z,18
2024-04-26T07:22:17.004Z,18
2024-04-26T07:27:16.685Z,17.4
2024-04-26T07:32:16.426Z,17
2024-04-26T07:37:16.128Z,15.1
2024-04-26T07:42:15.877Z,15
2024-04-26T07:47:16.135Z,14
2024-04-26T07:52:15.413Z,13.2
2024-04-26T07:57:15.360Z,11.8
2024-04-26T08:02:15.289Z,10.3
2024-04-26T08:07:16.280Z,10.6
2024-04-26T08:12:15.085Z,9.9
2024-04-26T08:17:15.228Z,8.3
2024-04-26T08:22:14.750Z,6.9
2024-04-26T08:27:14.818Z,7.7
2024-04-26T08:32:14.881Z,6.2
2024-04-26T08:37:14.921Z,6.9
2024-04-26T08:42:15.154Z,5.3
2024-04-26T08:47:16.493Z,4.9
2024-04-26T08:52:15.948Z,5
2024-04-26T08:57:15.159Z,4.4
2024-04-26T09:02:15.924Z,4.3
2024-04-26T09:07:14.342Z,4.9
2024-04-26T09:12:14.484Z,3.9
2024-04-26T09:17:14.458Z,4.1
2024-04-26T09:22:14.507Z,4
2024-04-26T09:27:14.842Z,4
2024-04-26T09:32:20.135Z,3.8
2024-04-26T09:37:14.548Z,3.1
2024-04-26T09:42:21.480Z,2.8
2024-04-26T09:47:14.911Z,3.2
2024-04-26T09:52:15.329Z,2.6
2024-04-26T09:57:14.730Z,2.3
2024-04-26T10:02:16.675Z,2.3
2024-04-26T10:07:23.710Z,2.1
2024-04-26T10:12:14.842Z,2
2024-04-26T10:17:16.745Z,1.7
2024-04-26T10:22:15.283Z,1.7
2024-04-26T10:27:15.497Z,1.8
2024-04-26T10:32:15.627Z,1.6
2024-04-26T10:37:21.486Z,1.4
2024-04-26T10:42:16.182Z,1.5
2024-04-26T10:47:15.743Z,1.8
2024-04-26T10:52:15.758Z,1.1
2024-04-26T10:57:22.554Z,1.3
2024-04-26T11:02:16.108Z,1.6
2024-04-26T11:07:20.153Z,1.5
2024-04-26T11:12:16.680Z,1.5
2024-04-26T11:17:16.699Z,4.2
2024-04-26T11:22:16.765Z,1.6
2024-04-26T11:27:19.251Z,1.2
2024-04-26T11:32:17.246Z,1.4
2024-04-26T11:37:17.040Z,1.5
2024-04-26T11:42:17.236Z,1.1
2024-04-26T11:47:17.700Z,1.4
2024-04-26T11:52:17.261Z,1.5
2024-04-26T11:57:17.404Z,1.1
2024-04-26T12:02:21.564Z,1.4
2024-04-26T12:07:17.402Z,1.5
2024-04-26T12:12:17.394Z,1.5
2024-04-26T12:17:17.440Z,1.9
2024-04-26T12:22:17.397Z,1.4
2024-04-26T12:27:18.337Z,1.3
2024-04-26T12:32:17.495Z,1.6
2024-04-26T12:37:17.338Z,2.5
2024-04-26T12:42:19.017Z,1.9
2024-04-26T12:47:21.662Z,1.4
2024-04-26T12:52:17.753Z,1.7
2024-04-26T12:57:17.479Z,1.3
2024-04-26T13:02:17.397Z,1.6
2024-04-26T13:07:18.892Z,1.1
2024-04-26T13:12:17.585Z,1.3
2024-04-26T13:17:17.672Z,2
2024-04-26T13:22:18.643Z,1
2024-04-26T13:27:17.886Z,1.6
2024-04-26T13:32:17.967Z,1.4
2024-04-26T13:37:17.756Z,1.6
2024-04-26T13:42:18.351Z,1.3
2024-04-26T13:47:17.833Z,1.2
2024-04-26T13:52:19.516Z,1.4
2024-04-26T13:57:18.037Z,1.3
2024-04-26T14:02:17.721Z,1.5
2024-04-26T14:07:17.730Z,1.4
2024-04-26T14:12:17.691Z,1.7
2024-04-26T14:17:17.678Z,1.5
2024-04-26T14:22:17.770Z,1.5
2024-04-26T14:27:18.496Z,1.5
2024-04-26T14:32:17.948Z,1.5
2024-04-26T14:37:17.915Z,1.8
2024-04-26T14:42:17.970Z,1.4
2024-04-26T14:47:17.924Z,1.4
2024-04-26T14:52:17.997Z,1.7
2024-04-26T14:57:18.835Z,1.5
2024-04-26T15:02:17.887Z,1.9
2024-04-26T15:07:17.851Z,1.4
2024-04-26T15:12:17.823Z,1.7
2024-04-26T15:17:17.790Z,1.5
2024-04-26T15:22:17.764Z,1.5
2024-04-26T15:27:17.707Z,1.5
2024-04-26T15:32:17.696Z,1.5
2024-04-26T15:37:17.517Z,1.5
2024-04-26T15:42:17.568Z,1.4
2024-04-26T15:47:17.915Z,1.6
2024-04-26T15:52:17.437Z,1.7
2024-04-26T15:57:17.314Z,1.5
2024-04-26T16:02:17.372Z,1.5
2024-04-26T16:07:17.256Z,1.6
2024-04-26T16:12:17.296Z,1.5
2024-04-26T16:17:18.256Z,1.6
2024-04-26T16:22:17.010Z,1.7
2024-04-26T16:27:16.966Z,1.6
2024-04-26T16:32:16.894Z,1.7
2024-04-26T16:37:16.872Z,1.8
2024-04-26T16:42:16.762Z,1.8
2024-04-26T16:47:17.230Z,2.1
2024-04-26T16:52:16.963Z,1.7
2024-04-26T16:57:16.670Z,1.7
2024-04-26T17:02:16.634Z,1.5
2024-04-26T17:07:17.167Z,1.4
2024-04-26T17:12:16.465Z,1.4
2024-04-26T17:17:16.361Z,1.3
2024-04-26T17:22:16.199Z,1.3
2024-04-26T17:27:17.300Z,1.4
2024-04-26T17:32:16.037Z,1.3
2024-04-26T17:37:15.902Z,1.5
2024-04-26T17:42:15.697Z,1.8
2024-04-26T17:47:15.609Z,2
2024-04-26T17:52:15.920Z,2
2024-04-26T17:57:17.718Z,2.3
2024-04-26T18:02:15.148Z,2.4
2024-04-26T18:07:14.883Z,2.8
2024-04-26T18:12:14.829Z,2.6
2024-04-26T18:17:14.544Z,3.1
2024-04-26T18:22:14.346Z,2.7
2024-04-26T18:27:14.215Z,3.2
2024-04-26T18:32:14.117Z,2.8
2024-04-26T18:37:13.754Z,2.6
2024-04-26T18:42:13.933Z,2.9
2024-04-26T18:47:13.523Z,2.2
2024-04-26T18:52:15.106Z,2.2
2024-04-26T18:57:13.075Z,2.3
2024-04-26T19:02:12.736Z,2.8
2024-04-26T19:07:12.518Z,2.9
2024-04-26T19:12:12.733Z,14.4
2024-04-26T19:17:12.155Z,75.5
2024-04-26T19:22:11.945Z,28.4
2024-04-26T19:27:13.700Z,65.8
2024-04-26T19:32:11.682Z,90.4
2024-04-26T19:37:11.109Z,48.6
2024-04-26T19:42:11.064Z,17
2024-04-26T19:47:10.841Z,5.4
2024-04-26T19:52:20.290Z,6.4
2024-04-26T19:57:09.952Z,6.6
2024-04-26T20:02:09.895Z,4.9
2024-04-26T20:07:09.326Z,4.5
2024-04-26T20:12:09.210Z,11.1
2024-04-26T20:17:08.833Z,6.3
2024-04-26T20:22:08.407Z,5.6
2024-04-26T20:27:08.110Z,4.7
2024-04-26T20:32:07.983Z,3.7
2024-04-26T20:37:07.676Z,4
2024-04-26T20:42:07.259Z,6.1
2024-04-26T20:47:07.082Z,9
2024-04-26T20:52:06.682Z,4.6
2024-04-26T20:57:06.579Z,5.6
2024-04-26T21:02:06.924Z,6
2024-04-26T21:07:06.072Z,7
2024-04-26T21:12:05.653Z,5.7
2024-04-26T21:17:05.550Z,6.5
2024-04-26T21:22:05.490Z,6.1
2024-04-26T21:27:04.942Z,6.7
2024-04-26T21:32:04.912Z,5.9
2024-04-26T21:37:04.429Z,5.9
2024-04-26T21:42:04.016Z,7.7
2024-04-26T21:47:03.872Z,5.6
2024-04-26T21:52:03.546Z,5.5
2024-04-26T21:57:03.409Z,5.4
2024-04-26T22:02:02.958Z,6
2024-04-26T22:07:02.638Z,5.9
2024-04-26T22:12:03.232Z,6.3
2024-04-26T22:17:02.671Z,6.5
2024-04-26T22:22:01.809Z,6
2024-04-26T22:27:01.425Z,5.4
2024-04-26T22:32:01.350Z,5
2024-04-26T22:37:00.899Z,4.2
2024-04-26T22:42:00.587Z,4.5
2024-04-26T22:47:00.486Z,4.2
2024-04-26T22:52:00.017Z,4.4
2024-04-26T22:57:00.151Z,4.9
2024-04-26T23:01:59.433Z,4.9
2024-04-26T23:06:59.119Z,5.2
2024-04-26T23:11:58.825Z,5
2024-04-26T23:16:58.510Z,4.3
2024-04-26T23:21:58.169Z,4.1
2024-04-26T23:26:57.943Z,4.2
2024-04-26T23:31:57.659Z,4.6
2024-04-26T23:36:57.276Z,4.4
2024-04-26T23:41:57.053Z,5.1
2024-04-26T23:46:56.987Z,4.9
2024-04-26T23:51:56.387Z,5.6
2024-04-26T23:56:56.071Z,6.4
